createdAt,value
2023-02-12T00:01:29.247Z,3.00
2023-02-12T00:03:57.804Z,4.20
2023-02-12T00:06:26.281Z,3.47
2023-02-12T00:08:57.003Z,1.93
2023-02-12T00:11:26.734Z,3.30
2023-02-12T00:13:58.781Z,2.83
2023-02-12T00:16:29.099Z,12.63
2023-02-12T00:18:58.475Z,2.13
2023-02-12T00:21:28.177Z,2.13
2023-02-12T00:23:57.230Z,3.40
2023-02-12T00:26:26.475Z,1.90
2023-02-12T00:28:55.529Z,2.97
2023-02-12T00:31:27.029Z,3.43
2023-02-12T00:33:55.529Z,4.97
2023-02-12T00:36:25.571Z,2.00
2023-02-12T00:38:55.375Z,4.13
2023-02-12T00:41:24.343Z,3.03
2023-02-12T00:43:53.199Z,4.53
2023-02-12T00:46:21.622Z,2.80
2023-02-12T00:48:51.274Z,2.90
2023-02-12T00:51:19.501Z,2.20
2023-02-12T00:53:47.653Z,2.90
2023-02-12T00:56:15.925Z,1.83
2023-02-12T00:58:44.154Z,3.53
2023-02-12T01:01:12.739Z,2.97
2023-02-12T01:03:41.029Z,3.30
2023-02-12T01:06:10.974Z,1.50
2023-02-12T01:08:39.209Z,5.47
2023-02-12T01:11:08.052Z,2.93
2023-02-12T01:13:37.162Z,3.80
2023-02-12T01:16:10.948Z,4.10
2023-02-12T01:18:40.067Z,2.20
2023-02-12T01:21:14.548Z,3.67
2023-02-12T01:23:43.127Z,2.60
2023-02-12T01:26:12.377Z,3.47
2023-02-12T01:28:41.265Z,2.00
2023-02-12T01:31:17.118Z,5.40
2023-02-12T01:33:45.807Z,1.83
2023-02-12T01:36:15.419Z,2.17
2023-02-12T01:38:43.955Z,3.13
2023-02-12T01:41:14.946Z,3.40
2023-02-12T01:43:43.466Z,4.33
2023-02-12T01:46:15.221Z,3.57
2023-02-12T01:48:46.526Z,1.97
2023-02-12T01:51:21.840Z,3.33
2023-02-12T01:53:55.053Z,4.03
2023-02-12T01:56:24.789Z,3.33
2023-02-12T01:58:58.021Z,2.83
2023-02-12T02:01:28.986Z,2.07
2023-02-12T02:04:01.969Z,2.73
2023-02-12T02:06:35.750Z,2.83
2023-02-12T02:09:05.480Z,3.83
2023-02-12T02:11:51.509Z,3.50
2023-02-12T02:14:35.446Z,4.13
2023-02-12T02:17:33.498Z,4.17
2023-02-12T02:20:49.357Z,2.00
2023-02-12T02:23:53.554Z,3.47
2023-02-12T02:26:38.504Z,1.90
2023-02-12T02:29:21.988Z,2.60
2023-02-12T02:31:58.590Z,2.43
2023-02-12T02:34:34.838Z,2.20
2023-02-12T02:37:15.589Z,2.73
2023-02-12T02:39:49.766Z,3.97
2023-02-12T02:42:25.427Z,2.30
2023-02-12T02:44:56.181Z,5.47
2023-02-12T02:47:33.948Z,2.10
2023-02-12T02:50:06.786Z,1.77
2023-02-12T02:52:39.410Z,1.60
2023-02-12T02:55:10.816Z,1.50
2023-02-12T02:57:44.452Z,2.90
2023-02-12T03:00:17.256Z,1.73
2023-02-12T03:02:53.719Z,2.60
2023-02-12T03:05:28.567Z,3.20
2023-02-12T03:08:01.652Z,4.63
2023-02-12T03:10:35.210Z,3.80
2023-02-12T03:13:08.700Z,1.53
2023-02-12T03:15:40.538Z,1.37
2023-02-12T03:18:18.972Z,2.27
2023-02-12T03:20:53.419Z,2.37
2023-02-12T03:23:26.947Z,2.33
2023-02-12T03:26:00.152Z,1.30
2023-02-12T03:28:31.452Z,2.83
2023-02-12T03:31:08.876Z,2.30
2023-02-12T03:33:51.680Z,3.70
2023-02-12T03:36:31.458Z,1.90
2023-02-12T03:39:07.313Z,2.43
2023-02-12T03:41:43.164Z,1.60
2023-02-12T03:44:20.038Z,3.80
2023-02-12T03:47:00.056Z,3.00
2023-02-12T03:49:34.958Z,1.43
2023-02-12T03:52:06.092Z,5.87
2023-02-12T03:54:35.014Z,2.70
2023-02-12T03:57:09.049Z,3.17
2023-02-12T03:59:39.040Z,2.10
2023-02-12T04:02:08.457Z,1.60
2023-02-12T04:04:38.620Z,3.07
2023-02-12T04:07:07.027Z,3.33
2023-02-12T04:09:35.267Z,1.63
2023-02-12T04:12:36.342Z,1.97
2023-02-12T04:15:19.137Z,1.90
2023-02-12T04:17:56.026Z,2.97
2023-02-12T04:20:42.926Z,2.13
2023-02-12T04:23:23.948Z,2.47
2023-02-12T04:26:03.758Z,3.73
2023-02-12T04:28:40.470Z,6.23
2023-02-12T04:31:14.682Z,3.97
2023-02-12T04:33:49.313Z,2.80
2023-02-12T04:36:24.483Z,2.00
2023-02-12T04:38:57.126Z,2.97
2023-02-12T04:41:32.482Z,4.33
2023-02-12T04:44:00.690Z,1.97
2023-02-12T04:46:28.968Z,6.57
2023-02-12T04:48:59.569Z,2.10
2023-02-12T04:51:29.244Z,5.47
2023-02-12T04:53:57.832Z,7.77
2023-02-12T04:56:26.020Z,7.67
2023-02-12T04:58:57.884Z,4.27
2023-02-12T05:01:26.264Z,3.97
2023-02-12T05:03:54.675Z,6.87
2023-02-12T05:06:22.895Z,3.87
2023-02-12T05:09:01.829Z,11.80
2023-02-12T05:11:30.165Z,4.30
2023-02-12T05:13:58.402Z,5.07
2023-02-12T05:16:26.604Z,7.53
2023-02-12T05:18:54.855Z,7.00
2023-02-12T05:21:23.028Z,10.40
2023-02-12T05:23:52.668Z,5.63
2023-02-12T05:26:23.438Z,12.30
2023-02-12T05:28:51.652Z,6.13
2023-02-12T05:31:21.700Z,8.37
2023-02-12T05:33:50.844Z,7.83
2023-02-12T05:36:21.502Z,8.27
2023-02-12T05:38:50.645Z,11.10
2023-02-12T05:41:23.123Z,8.20
2023-02-12T05:43:51.641Z,13.27
2023-02-12T05:46:21.235Z,7.37
2023-02-12T05:48:49.805Z,8.97
2023-02-12T05:51:21.945Z,12.97
2023-02-12T05:53:51.333Z,10.77
2023-02-12T05:56:22.726Z,13.67
2023-02-12T05:58:56.220Z,14.00
2023-02-12T06:01:27.521Z,11.67
2023-02-12T06:04:00.163Z,6.37
2023-02-12T06:06:29.625Z,10.20
2023-02-12T06:08:58.593Z,15.63
2023-02-12T06:11:28.469Z,9.10
2023-02-12T06:13:56.784Z,12.57
2023-02-12T06:16:27.017Z,16.40
2023-02-12T06:19:00.916Z,10.27
2023-02-12T06:21:29.787Z,11.97
2023-02-12T06:23:58.146Z,10.03
2023-02-12T06:26:28.414Z,13.00
2023-02-12T06:28:56.899Z,11.63
2023-02-12T06:31:27.458Z,13.90
2023-02-12T06:33:57.880Z,13.23
2023-02-12T06:36:26.491Z,11.97
2023-02-12T06:38:54.991Z,13.57
2023-02-12T06:41:24.389Z,11.43
2023-02-12T06:43:54.107Z,12.47
2023-02-12T06:46:23.062Z,16.43
2023-02-12T06:48:54.794Z,16.93
2023-02-12T06:51:24.558Z,16.20
2023-02-12T06:53:53.972Z,9.80
2023-02-12T06:56:23.756Z,12.70
2023-02-12T06:58:56.927Z,13.70
2023-02-12T07:01:27.560Z,8.53
2023-02-12T07:03:57.630Z,10.10
2023-02-12T07:06:27.259Z,17.27
2023-02-12T07:08:55.817Z,16.57
2023-02-12T07:11:25.422Z,14.20
2023-02-12T07:13:55.593Z,19.60
2023-02-12T07:16:24.062Z,17.50
2023-02-12T07:18:52.415Z,13.40
2023-02-12T07:21:20.780Z,16.87
2023-02-12T07:23:51.172Z,16.33
2023-02-12T07:26:21.252Z,16.77
2023-02-12T07:29:01.963Z,15.13
2023-02-12T07:31:30.504Z,19.07
2023-02-12T07:34:00.683Z,14.97
2023-02-12T07:36:31.549Z,15.57
2023-02-12T07:39:00.279Z,12.33
2023-02-12T07:41:30.615Z,15.93
2023-02-12T07:44:07.503Z,15.57
2023-02-12T07:46:38.096Z,14.90
2023-02-12T07:49:08.098Z,18.07
2023-02-12T07:51:37.015Z,16.60
2023-02-12T07:54:06.694Z,12.17
2023-02-12T07:56:37.712Z,19.00
2023-02-12T07:59:09.153Z,11.93
2023-02-12T08:01:38.914Z,11.57
2023-02-12T08:04:10.302Z,17.30
2023-02-12T08:06:40.749Z,17.27
2023-02-12T08:09:11.780Z,12.97
2023-02-12T08:11:41.932Z,14.20
2023-02-12T08:14:16.364Z,15.90
2023-02-12T08:16:46.454Z,10.97
2023-02-12T08:19:20.275Z,24.40
2023-02-12T08:21:52.056Z,13.33
2023-02-12T08:24:22.457Z,20.57
2023-02-12T08:26:51.519Z,19.23
2023-02-12T08:29:27.929Z,16.90
2023-02-12T08:31:58.367Z,13.70
2023-02-12T08:34:28.548Z,10.27
2023-02-12T08:36:57.623Z,7.83
2023-02-12T08:39:29.129Z,10.90
2023-02-12T08:41:58.091Z,13.67
2023-02-12T08:44:27.822Z,13.67
2023-02-12T08:46:56.991Z,13.40
2023-02-12T08:49:26.932Z,13.83
2023-02-12T08:51:57.432Z,14.37
2023-02-12T08:54:28.037Z,9.40
2023-02-12T08:56:57.251Z,16.87
2023-02-12T08:59:25.781Z,16.10
2023-02-12T09:01:55.767Z,9.83
2023-02-12T09:04:25.873Z,14.73
2023-02-12T09:06:54.526Z,14.27
2023-02-12T09:09:23.529Z,13.57
2023-02-12T09:11:51.816Z,8.37
2023-02-12T09:14:24.597Z,12.93
2023-02-12T09:16:55.172Z,13.63
2023-02-12T09:19:23.711Z,12.13
2023-02-12T09:21:55.877Z,8.60
2023-02-12T09:24:24.766Z,9.43
2023-02-12T09:26:52.997Z,11.07
2023-02-12T09:29:21.347Z,15.43
2023-02-12T09:31:49.649Z,10.37
2023-02-12T09:34:19.461Z,11.50
2023-02-12T09:36:48.566Z,7.07
2023-02-12T09:39:16.755Z,10.27
2023-02-12T09:42:18.042Z,13.40
2023-02-12T09:44:54.984Z,10.50
2023-02-12T09:47:31.682Z,9.57
2023-02-12T09:50:24.024Z,13.33
2023-02-12T09:52:53.931Z,8.03
2023-02-12T09:55:27.477Z,12.87
2023-02-12T09:57:56.099Z,9.40
2023-02-12T10:00:31.253Z,6.63
2023-02-12T10:03:05.327Z,6.57
2023-02-12T10:05:42.594Z,7.23
2023-02-12T10:08:24.907Z,9.77
2023-02-12T10:10:56.006Z,7.50
2023-02-12T10:13:38.935Z,8.67
2023-02-12T10:16:14.445Z,8.00
2023-02-12T10:19:15.579Z,8.43
2023-02-12T10:21:55.970Z,10.03
2023-02-12T10:24:49.491Z,9.30
2023-02-12T10:27:22.748Z,4.83
2023-02-12T10:29:52.967Z,6.43
2023-02-12T10:32:27.086Z,5.03
2023-02-12T10:34:57.572Z,7.17
2023-02-12T10:37:37.409Z,5.87
2023-02-12T10:40:17.308Z,5.27
2023-02-12T10:42:48.756Z,7.23
2023-02-12T10:45:18.893Z,5.17
2023-02-12T10:47:48.128Z,9.43
2023-02-12T10:50:23.784Z,7.17
2023-02-12T10:52:58.066Z,6.67
2023-02-12T10:55:29.962Z,7.20
2023-02-12T10:57:59.206Z,7.17
2023-02-12T11:00:31.925Z,2.80
2023-02-12T11:03:06.565Z,5.13
2023-02-12T11:05:38.136Z,5.27
2023-02-12T11:08:09.292Z,2.97
2023-02-12T11:10:41.315Z,4.83
2023-02-12T11:13:26.516Z,4.33
2023-02-12T11:15:55.905Z,4.13
2023-02-12T11:18:26.824Z,5.63
2023-02-12T11:20:58.630Z,2.47
2023-02-12T11:23:31.148Z,4.03
2023-02-12T11:26:02.204Z,6.40
2023-02-12T11:28:32.511Z,4.13
2023-02-12T11:31:02.794Z,2.80
2023-02-12T11:33:34.810Z,2.07
2023-02-12T11:36:07.562Z,3.13
2023-02-12T11:38:40.909Z,2.60
2023-02-12T11:41:24.640Z,2.50
2023-02-12T11:43:53.371Z,1.70
2023-02-12T11:46:25.558Z,3.97
2023-02-12T11:48:55.998Z,2.93
2023-02-12T11:51:30.016Z,2.87
2023-02-12T11:54:04.277Z,2.37
2023-02-12T11:56:43.995Z,2.60
2023-02-12T11:59:23.058Z,1.60
2023-02-12T12:01:55.179Z,2.67
2023-02-12T12:04:25.598Z,1.87
2023-02-12T12:06:59.698Z,3.03
2023-02-12T12:09:37.047Z,2.67
2023-02-12T12:12:13.758Z,8.90
2023-02-12T12:15:04.919Z,3.20
2023-02-12T12:17:59.966Z,1.73
2023-02-12T12:20:32.234Z,1.83
2023-02-12T12:23:05.310Z,4.37
2023-02-12T12:25:44.815Z,3.23
2023-02-12T12:28:30.243Z,3.73
2023-02-12T12:31:11.452Z,2.57
2023-02-12T12:33:44.380Z,3.10
2023-02-12T12:36:58.362Z,2.40
2023-02-12T12:39:33.710Z,1.90
2023-02-12T12:42:46.616Z,1.40
2023-02-12T12:45:41.858Z,2.60
2023-02-12T12:48:25.209Z,1.53
2023-02-12T12:51:10.832Z,2.03
2023-02-12T12:53:56.200Z,1.60
2023-02-12T12:56:39.316Z,1.50
2023-02-12T12:59:39.341Z,1.47
2023-02-12T13:02:49.222Z,2.63
2023-02-12T13:05:55.468Z,2.93
2023-02-12T13:08:41.504Z,1.73
2023-02-12T13:11:22.832Z,2.77
2023-02-12T13:13:56.118Z,2.50
2023-02-12T13:16:32.767Z,2.90
2023-02-12T13:19:06.193Z,3.53
2023-02-12T13:21:46.755Z,2.80
2023-02-12T13:24:27.178Z,2.53
2023-02-12T13:26:58.476Z,3.63
2023-02-12T13:29:31.049Z,4.60
2023-02-12T13:32:04.034Z,3.67
2023-02-12T13:34:36.520Z,2.87
2023-02-12T13:37:13.339Z,1.70
2023-02-12T13:39:44.854Z,5.60
2023-02-12T13:42:29.257Z,4.00
2023-02-12T13:45:02.214Z,3.07
2023-02-12T13:47:43.472Z,6.17
2023-02-12T13:50:33.240Z,4.40
2023-02-12T13:53:08.577Z,7.33
2023-02-12T13:55:43.427Z,7.03
2023-02-12T13:58:49.601Z,8.30
2023-02-12T14:01:40.033Z,5.53
2023-02-12T14:04:29.716Z,3.13
2023-02-12T14:07:01.661Z,6.40
2023-02-12T14:09:38.635Z,8.10
2023-02-12T14:12:09.639Z,8.50
2023-02-12T14:14:40.596Z,12.13
2023-02-12T14:17:57.779Z,7.27
2023-02-12T14:20:29.273Z,8.67
2023-02-12T14:23:27.109Z,9.17
2023-02-12T14:26:06.440Z,5.93
2023-02-12T14:28:48.502Z,10.57
2023-02-12T14:31:32.167Z,9.40
2023-02-12T14:34:52.226Z,7.33
2023-02-12T14:37:37.926Z,8.33
2023-02-12T14:40:47.173Z,6.83
2023-02-12T14:43:32.799Z,10.47
2023-02-12T14:46:39.938Z,10.03
2023-02-12T14:49:24.853Z,10.03
2023-02-12T14:52:00.427Z,7.53
2023-02-12T14:54:33.770Z,11.03
2023-02-12T14:57:05.917Z,13.40
2023-02-12T14:59:38.887Z,11.80
2023-02-12T15:02:08.769Z,10.17
2023-02-12T15:04:40.351Z,8.00
2023-02-12T15:07:12.214Z,10.63
2023-02-12T15:09:48.819Z,13.97
2023-02-12T15:12:22.154Z,10.50
2023-02-12T15:14:57.597Z,15.03
2023-02-12T15:17:31.150Z,9.30
2023-02-12T15:20:04.575Z,14.60
2023-02-12T15:22:35.791Z,9.97
2023-02-12T15:25:17.686Z,11.37
2023-02-12T15:27:49.937Z,12.80
2023-02-12T15:30:26.107Z,14.80
2023-02-12T15:32:56.868Z,9.10
2023-02-12T15:35:29.809Z,9.30
2023-02-12T15:38:00.278Z,11.00
2023-02-12T15:40:29.226Z,10.00
2023-02-12T15:43:00.570Z,11.90
2023-02-12T15:45:31.061Z,10.20
2023-02-12T15:48:04.308Z,8.37
2023-02-12T15:50:35.909Z,14.43
2023-02-12T15:53:05.041Z,11.20
2023-02-12T15:55:40.969Z,9.13
2023-02-12T15:58:22.513Z,10.33
2023-02-12T16:00:51.440Z,11.67
2023-02-12T16:03:25.769Z,12.47
2023-02-12T16:06:03.734Z,13.77
2023-02-12T16:08:34.647Z,11.03
2023-02-12T16:11:14.079Z,9.50
2023-02-12T16:13:54.586Z,7.97
2023-02-12T16:16:26.601Z,9.20
2023-02-12T16:19:20.053Z,9.30
2023-02-12T16:21:53.343Z,10.93
2023-02-12T16:24:32.419Z,8.73
2023-02-12T16:27:06.012Z,10.80
2023-02-12T16:29:38.028Z,8.13
2023-02-12T16:32:06.758Z,8.43
2023-02-12T16:34:37.267Z,9.43
2023-02-12T16:37:43.669Z,11.13
2023-02-12T16:40:23.513Z,7.83
2023-02-12T16:42:59.587Z,13.03
2023-02-12T16:45:52.201Z,11.73
2023-02-12T16:48:25.422Z,10.37
2023-02-12T16:50:57.575Z,12.80
2023-02-12T16:53:43.638Z,7.10
2023-02-12T16:56:18.307Z,10.43
2023-02-12T16:58:48.510Z,7.23
2023-02-12T17:01:23.474Z,8.17
2023-02-12T17:03:52.624Z,9.33
2023-02-12T17:06:23.059Z,8.67
2023-02-12T17:08:52.933Z,6.90
2023-02-12T17:11:23.315Z,5.97
2023-02-12T17:13:53.645Z,8.63
2023-02-12T17:16:30.850Z,10.80
2023-02-12T17:19:00.197Z,5.87
2023-02-12T17:21:30.883Z,6.90
2023-02-12T17:24:00.657Z,10.60
2023-02-12T17:26:28.842Z,5.43
2023-02-12T17:29:05.393Z,9.67
2023-02-12T17:31:37.005Z,8.10
2023-02-12T17:34:05.994Z,8.73
2023-02-12T17:36:34.719Z,6.47
2023-02-12T17:39:07.684Z,9.27
2023-02-12T17:41:37.070Z,7.67
2023-02-12T17:44:05.707Z,11.87
2023-02-12T17:46:34.775Z,8.90
2023-02-12T17:49:03.255Z,7.47
2023-02-12T17:51:33.595Z,6.57
2023-02-12T17:54:03.225Z,9.37
2023-02-12T17:56:31.517Z,9.23
2023-02-12T17:58:59.793Z,7.97
2023-02-12T18:01:28.671Z,6.40
2023-02-12T18:03:59.466Z,5.00
2023-02-12T18:06:29.690Z,5.80
2023-02-12T18:08:59.187Z,7.50
2023-02-12T18:11:29.510Z,10.50
2023-02-12T18:13:59.021Z,7.73
2023-02-12T18:16:30.239Z,11.53
2023-02-12T18:19:00.008Z,6.97
2023-02-12T18:21:28.587Z,5.90
2023-02-12T18:23:56.947Z,6.97
2023-02-12T18:26:27.640Z,11.03
2023-02-12T18:28:58.559Z,7.30
2023-02-12T18:31:27.960Z,7.50
2023-02-12T18:33:56.295Z,10.07
2023-02-12T18:36:25.215Z,7.97
2023-02-12T18:38:54.213Z,10.83
2023-02-12T18:41:25.027Z,5.83
2023-02-12T18:43:54.981Z,9.10
2023-02-12T18:46:30.802Z,10.70
2023-02-12T18:48:59.783Z,5.40
2023-02-12T18:51:33.853Z,5.33
2023-02-12T18:54:06.462Z,6.57
2023-02-12T18:56:38.300Z,3.13
2023-02-12T18:59:07.034Z,7.97
2023-02-12T19:01:46.751Z,8.67
2023-02-12T19:04:16.901Z,5.77
2023-02-12T19:06:48.205Z,6.77
2023-02-12T19:09:20.298Z,6.87
2023-02-12T19:11:49.879Z,7.37
2023-02-12T19:14:19.793Z,5.47
2023-02-12T19:16:50.462Z,7.33
2023-02-12T19:19:20.204Z,5.97
2023-02-12T19:21:48.703Z,4.80
2023-02-12T19:24:17.906Z,7.87
2023-02-12T19:26:46.554Z,4.33
2023-02-12T19:29:15.400Z,3.97
2023-02-12T19:31:46.965Z,7.47
2023-02-12T19:34:23.250Z,8.53
2023-02-12T19:36:51.728Z,9.43
2023-02-12T19:39:21.811Z,4.43
2023-02-12T19:41:50.953Z,9.40
2023-02-12T19:44:24.310Z,5.07
2023-02-12T19:46:55.269Z,4.23
2023-02-12T19:49:27.020Z,6.83
2023-02-12T19:51:56.839Z,5.50
2023-02-12T19:54:25.723Z,4.63
2023-02-12T19:56:55.462Z,5.20
2023-02-12T19:59:26.933Z,8.70
2023-02-12T20:01:56.907Z,4.60
2023-02-12T20:04:26.933Z,8.53
2023-02-12T20:06:55.238Z,4.83
2023-02-12T20:09:24.498Z,4.80
2023-02-12T20:11:53.445Z,8.53
2023-02-12T20:14:22.842Z,4.87
2023-02-12T20:16:52.518Z,4.97
2023-02-12T20:19:23.326Z,4.50
2023-02-12T20:21:56.075Z,5.37
2023-02-12T20:24:25.582Z,4.77
2023-02-12T20:26:54.452Z,4.57
2023-02-12T20:29:23.096Z,5.40
2023-02-12T20:31:51.980Z,9.03
2023-02-12T20:34:22.179Z,6.57
2023-02-12T20:36:55.654Z,4.57
2023-02-12T20:39:25.648Z,7.30
2023-02-12T20:41:54.106Z,6.77
2023-02-12T20:44:23.157Z,3.57
2023-02-12T20:46:56.490Z,7.97
2023-02-12T20:49:26.145Z,6.10
2023-02-12T20:51:57.182Z,6.27
2023-02-12T20:54:26.865Z,5.53
2023-02-12T20:56:55.195Z,5.87
2023-02-12T20:59:23.431Z,7.40
2023-02-12T21:01:51.790Z,5.37
2023-02-12T21:04:20.837Z,4.70
2023-02-12T21:06:49.665Z,7.10
2023-02-12T21:09:18.927Z,9.73
2023-02-12T21:11:49.685Z,5.93
2023-02-12T21:14:22.281Z,6.87
2023-02-12T21:16:53.118Z,7.33
2023-02-12T21:19:21.708Z,2.40
2023-02-12T21:21:50.387Z,9.70
2023-02-12T21:24:21.770Z,7.13
2023-02-12T21:26:52.112Z,3.40
2023-02-12T21:29:21.372Z,10.23
2023-02-12T21:31:51.734Z,10.17
2023-02-12T21:34:21.877Z,7.53
2023-02-12T21:36:51.211Z,9.37
2023-02-12T21:39:25.218Z,7.00
2023-02-12T21:41:56.645Z,6.00
2023-02-12T21:44:26.144Z,8.43
2023-02-12T21:46:55.087Z,4.90
2023-02-12T21:49:28.152Z,6.50
2023-02-12T21:51:58.993Z,8.70
2023-02-12T21:54:29.378Z,8.23
2023-02-12T21:56:59.602Z,6.63
2023-02-12T21:59:30.121Z,5.70
2023-02-12T22:02:00.875Z,5.23
2023-02-12T22:04:29.604Z,8.73
2023-02-12T22:06:59.848Z,7.47
2023-02-12T22:09:28.180Z,7.70
2023-02-12T22:11:56.332Z,11.17
2023-02-12T22:14:25.883Z,7.90
2023-02-12T22:16:54.372Z,10.63
2023-02-12T22:19:22.613Z,12.83
2023-02-12T22:21:52.841Z,8.80
2023-02-12T22:24:21.681Z,11.17
2023-02-12T22:26:50.341Z,4.80
2023-02-12T22:29:18.836Z,8.60
2023-02-12T22:31:49.149Z,10.60
2023-02-12T22:34:19.164Z,11.70
2023-02-12T22:36:48.888Z,7.93
2023-02-12T22:39:22.484Z,10.53
2023-02-12T22:41:52.192Z,8.67
2023-02-12T22:44:21.425Z,10.80
2023-02-12T22:46:54.322Z,6.83
2023-02-12T22:49:22.609Z,7.50
2023-02-12T22:51:51.609Z,5.13
2023-02-12T22:54:21.024Z,5.90
2023-02-12T22:56:52.040Z,5.17
2023-02-12T22:59:20.647Z,12.50
2023-02-12T23:01:50.320Z,10.37
2023-02-12T23:04:20.099Z,10.47
2023-02-12T23:06:48.927Z,10.17
2023-02-12T23:09:19.321Z,9.10
2023-02-12T23:11:48.765Z,6.97
2023-02-12T23:14:17.545Z,12.70
2023-02-12T23:16:46.110Z,7.77
2023-02-12T23:19:16.397Z,9.40
2023-02-12T23:21:45.152Z,14.27
2023-02-12T23:24:15.315Z,9.97
2023-02-12T23:26:43.752Z,6.60
2023-02-12T23:29:12.066Z,3.63
2023-02-12T23:31:40.730Z,7.87
2023-02-12T23:34:09.027Z,8.50
2023-02-12T23:36:38.643Z,9.47
2023-02-12T23:39:07.271Z,8.03
2023-02-12T23:41:35.846Z,6.77
2023-02-12T23:44:04.307Z,7.17
2023-02-12T23:46:32.794Z,7.90
2023-02-12T23:49:01.047Z,7.50
2023-02-12T23:51:31.053Z,5.57
2023-02-12T23:54:00.741Z,4.53
2023-02-12T23:56:29.629Z,6.60
2023-02-12T23:58:58.175Z,9.73
